CW7841 Weather Reports


Display with metric or nautical units.
time (UTC)temp
F
wind
direction
speed
MPH
gust
MPH
rain 1hr
in
rain 24hr
in
rain mn
in
humidity
%
barometer
mb
20170625103442 77 199 0.0 0.0 0.00 0.00 0.00 89 1019.6
20170625102942 77 197 0.0 0.0 0.00 0.00 0.00 89 1019.5
20170625102442 77 199 0.0 0.0 0.00 0.00 0.00 89 1019.4
20170625101942 77 199 0.0 0.0 0.00 0.00 0.00 89 1019.4
20170625101442 77 199 0.0 0.0 0.00 0.00 0.00 89 1019.2
20170625100942 77 199 0.0 0.0 0.00 0.00 0.00 88 1019.2
20170625100442 77 198 0.0 0.0 0.00 0.00 0.00 88 1019.3
20170625095942 77 198 0.0 0.0 0.00 0.00 0.00 89 1019.2
20170625095442 77 198 0.0 0.0 0.00 0.00 0.00 89 1019.3
20170625094942 77 198 0.0 0.0 0.00 0.00 0.00 89 1019.1
20170625094442 78 176 0.0 0.0 0.00 0.00 0.00 90 1019.0
20170625093942 78 198 0.0 0.0 0.00 0.00 0.00 89 1019.0
20170625093442 78 198 0.0 0.0 0.00 0.00 0.00 88 1019.0
20170625092942 78 176 0.0 0.0 0.00 0.00 0.00 91 1019.1
20170625092442 78 199 0.0 0.0 0.00 0.00 0.00 88 1019.0
20170625091942 78 199 0.0 0.0 0.00 0.00 0.00 88 1019.0
20170625091441 78 198 0.0 0.0 0.00 0.00 0.00 88 1018.9
20170625090442 78 199 0.0 0.0 0.00 0.00 0.00 88 1018.8
20170625085443 78 188 0.0 0.0 0.00 0.00 0.00 89 1018.9
20170625084942 79 197 0.0 0.0 0.00 0.00 0.00 88 1018.6
20170625084441 79 198 0.0 0.0 0.00 0.00 0.00 88 1018.8
20170625083942 79 199 0.0 0.0 0.00 0.00 0.00 87 1018.6
20170625083442 79 199 0.0 0.0 0.00 0.00 0.00 87 1018.7
20170625082942 79 199 0.0 0.0 0.00 0.00 0.00 87 1018.9
20170625082442 79 199 0.0 0.0 0.00 0.00 0.00 87 1018.8
20170625075942 79 194 0.0 0.0 0.00 0.00 0.00 88 1018.8
20170625075441 80 196 0.0 0.0 0.00 0.00 0.00 88 1018.9
20170625074442 80 197 0.0 0.0 0.00 0.00 0.00 87 1018.9
20170625073942 80 195 0.0 0.0 0.00 0.00 0.00 87 1018.8
20170625073442 80 196 0.0 0.0 0.00 0.00 0.00 87 1018.9
20170625072942 80 197 0.0 0.0 0.00 0.00 0.00 87 1018.8
20170625072441 80 197 0.0 0.0 0.00 0.00 0.00 87 1018.9
20170625071942 80 198 0.0 0.0 0.00 0.00 0.00 87 1019.1
20170625071442 80 197 0.0 0.0 0.00 0.00 0.00 87 1019.1
20170625070442 80 196 0.0 0.0 0.00 0.00 0.00 87 1018.9
20170625065442 80 196 0.0 0.0 0.00 0.00 0.00 87 1018.9
20170625064441 80 192 0.0 0.0 0.00 0.00 0.00 87 1019.0
20170625062442 81 197 0.0 0.0 0.00 0.00 0.00 86 1019.3
20170625061942 81 198 0.0 0.0 0.00 0.00 0.00 86 1019.1
20170625060441 81 191 0.0 0.0 0.00 0.00 0.00 87 1019.3
20170625055441 81 198 0.0 0.0 0.00 0.00 0.00 86 1019.3
20170625054941 81 198 0.0 0.0 0.00 0.00 0.00 86 1019.4
20170625053941 81 198 0.0 0.0 0.00 0.00 0.00 86 1019.5
20170625053441 81 198 0.0 0.0 0.00 0.00 0.00 86 1019.3
20170625052441 81 198 0.0 0.0 0.00 0.00 0.00 86 1019.3
20170625051941 81 198 0.0 0.0 0.00 0.00 0.00 86 1019.6
20170625051441 81 198 0.0 0.0 0.00 0.00 0.00 86 1019.7
20170625050941 81 198 0.0 0.0 0.00 0.00 0.00 86 1019.4
20170625050441 81 198 0.0 0.0 0.00 0.00 0.00 86 1019.4
20170625045941 82 198 0.0 0.0 0.00 0.00 0.00 86 1019.4
20170625045441 82 201 0.0 0.0 0.00 0.00 0.00 86 1019.4
20170625044941 81 201 0.0 0.0 0.00 0.00 0.00 86 1019.5
20170625044441 82 179 0.0 0.0 0.00 0.00 0.00 86 1019.5
20170625043941 82 179 0.0 0.0 0.00 0.00 0.00 86 1019.5
20170625043441 82 179 0.0 0.0 0.00 0.00 0.00 86 1019.6
20170625042942 82 190 0.0 0.0 0.00 0.00 0.00 86 1019.7
20170625042441 82 183 0.0 0.0 0.00 0.00 0.00 86 1019.5
20170625041941 82 185 0.0 0.0 0.00 0.00 0.00 86 1019.4
20170625041441 82 170 0.0 0.0 0.00 0.00 0.00 86 1019.6
20170625040941 82 133 0.0 0.0 0.00 0.00 0.00 86 1019.6
20170625040441 82 141 0.0 0.0 0.00 0.00 0.00 86 1019.4
20170625035941 82 141 0.0 3.0 0.00 0.00 0.00 86 1019.5
20170625035441 82 166 0.0 3.0 0.00 0.00 0.00 86 1019.6
20170625034442 82 164 0.0 0.0 0.00 0.00 0.00 86 1019.7
20170625033942 82 123 0.0 0.0 0.00 0.00 0.00 87 1019.6
20170625032942 82 178 0.0 0.0 0.00 0.00 0.00 86 1019.6
20170625032441 82 168 0.0 0.0 0.00 0.00 0.00 88 1019.8
20170625031942 82 146 0.0 0.0 0.00 0.00 0.00 86 1019.6
20170625031441 82 135 0.0 0.0 0.00 0.00 0.00 91 1019.7
20170625030941 82 158 0.0 0.0 0.00 0.00 0.00 86 1019.6
20170625025941 82 149 0.0 0.0 0.00 0.00 0.00 88 1019.5
20170625025441 82 120 0.0 0.0 0.00 0.00 0.00 90 1019.6
20170625024942 82 152 0.0 0.0 0.00 0.00 0.00 85 1019.7
20170625024441 82 151 0.0 0.0 0.00 0.00 0.00 85 1019.5
20170625023441 83 131 0.0 0.0 0.00 0.00 0.00 85 1019.4
20170625020941 83 132 0.0 0.0 0.00 0.00 0.00 83 1019.1
20170625020441 83 158 0.0 0.0 0.00 0.00 0.00 83 1019.3
20170625015441 83 126 0.0 0.0 0.00 0.00 0.00 84 1019.0
20170625014941 83 114 0.0 0.0 0.00 0.00 0.00 85 1018.8
20170625014441 83 166 0.0 0.0 0.00 0.00 0.00 83 1018.8
20170625013941 83 140 0.0 0.0 0.00 0.00 0.00 82 1018.8
20170625013441 83 142 0.0 0.0 0.00 0.00 0.00 82 1019.0
20170625012941 83 122 0.0 0.0 0.00 0.00 0.00 82 1018.7
20170625012441 83 155 0.0 0.0 0.00 0.00 0.00 81 1018.7
20170625011941 83 141 0.0 0.0 0.00 0.00 0.00 82 1018.7
20170625011441 83 143 0.0 0.0 0.00 0.00 0.00 83 1018.7
20170625010941 84 130 0.0 0.0 0.00 0.00 0.00 81 1018.5
20170625005941 84 140 0.0 6.0 0.00 0.00 0.00 80 1018.5
20170625005441 84 139 0.0 6.0 0.00 0.00 0.00 80 1018.5
20170625004941 84 171 1.0 6.0 0.00 0.00 0.00 80 1018.5
20170625003441 84 143 0.0 6.0 0.00 0.00 0.00 79 1018.5
20170625002941 84 141 0.0 6.0 0.00 0.00 0.00 79 1018.6
20170625002441 84 167 0.0 6.0 0.00 0.00 0.00 79 1018.5
20170625000942 85 156 0.0 5.0 0.00 0.00 0.00 78 1018.2
20170624235941 85 136 0.0 10.0 0.00 0.00 0.00 78 1018.2
20170624234941 85 136 0.0 10.0 0.00 0.00 0.00 78 1017.9
20170624234441 86 159 3.0 10.0 0.00 0.00 0.00 80 1018.2
20170624233941 86 127 3.0 10.0 0.00 0.00 0.00 78 1018.0
20170624232941 86 143 3.0 10.0 0.00 0.00 0.00 77 1017.9
20170624232441 86 134 8.0 10.0 0.00 0.00 0.00 77 1017.8
20170624231441 86 178 0.0 9.0 0.00 0.00 0.00 76 1017.7
20170624230941 86 155 0.0 4.0 0.00 0.00 0.00 75 1017.7
20170624225441 86 118 0.0 13.0 0.00 0.00 0.00 75 1017.7
20170624224941 86 133 1.0 13.0 0.00 0.00 0.00 75 1017.7
20170624224441 86 165 7.0 13.0 0.00 0.00 0.00 75 1017.8
20170624223441 86 133 3.0 13.0 0.00 0.00 0.00 77 1017.5
20170624222940 86 119 2.0 13.0 0.00 0.00 0.00 77 1017.6
20170624222441 86 174 0.0 13.0 0.00 0.00 0.00 77 1017.5
20170624221941 85 134 0.0 13.0 0.00 0.00 0.00 77 1017.4
20170624221441 86 115 3.0 13.0 0.00 0.00 0.00 77 1017.6
20170624220941 86 126 0.0 13.0 0.00 0.00 0.00 77 1017.5
20170624215441 86 110 3.0 14.0 0.00 0.00 0.00 78 1017.8
20170624214941 86 149 0.0 14.0 0.00 0.00 0.00 78 1017.8
20170624213941 86 108 8.0 12.0 0.00 0.00 0.00 77 1017.7
20170624213441 86 130 0.0 12.0 0.00 0.00 0.00 77 1017.7
20170624212941 87 133 0.0 12.0 0.00 0.00 0.00 77 1017.9
20170624211940 87 121 2.0 8.0 0.00 0.00 0.00 77 1018.1
20170624211440 87 127 0.0 8.0 0.00 0.00 0.00 77 1018.0
20170624210941 87 128 1.0 6.0 0.00 0.00 0.00 76 1018.1
20170624205941 88 142 0.0 13.0 0.00 0.00 0.00 74 1018.2
20170624205441 88 137 0.0 13.0 0.00 0.00 0.00 74 1018.2
20170624204440 88 160 1.0 13.0 0.00 0.00 0.00 73 1018.2
20170624202440 89 129 0.0 10.0 0.00 0.00 0.00 71 1018.3
20170624201940 89 137 0.0 10.0 0.00 0.00 0.00 70 1018.3
20170624200441 90 130 0.0 9.0 0.00 0.00 0.00 70 1018.3
20170624195940 90 139 0.0 13.0 0.00 0.00 0.00 71 1018.3
20170624194940 91 109 3.0 13.0 0.00 0.00 0.00 70 1018.2
20170624194440 91 136 0.0 13.0 0.00 0.00 0.00 70 1018.5
20170624193940 91 149 0.0 13.0 0.00 0.00 0.00 70 1018.6
20170624193441 90 141 2.0 13.0 0.00 0.00 0.00 69 1018.4
20170624192941 90 116 3.0 13.0 0.00 0.00 0.00 71 1018.5
20170624191441 90 123 6.0 10.0 0.00 0.00 0.00 71 1018.8
20170624190440 90 118 1.0 10.0 0.00 0.00 0.00 70 1018.7
20170624185940 90 111 0.0 13.0 0.00 0.00 0.00 68 1018.6
20170624185440 90 114 3.0 13.0 0.00 0.00 0.00 69 1018.6
20170624184940 90 120 2.0 13.0 0.00 0.00 0.00 69 1018.8
20170624183941 90 117 8.0 13.0 0.00 0.00 0.00 70 1018.7
20170624183441 90 126 0.0 11.0 0.00 0.00 0.00 69 1018.7
20170624182940 90 99 0.0 11.0 0.00 0.00 0.00 70 1018.9
20170624180440 90 116 1.0 10.0 0.00 0.00 0.00 69 1019.0
20170624175440 90 112 11.0 13.0 0.00 0.00 0.00 70 1019.3
20170624174940 90 116 3.0 13.0 0.00 0.00 0.00 71 1019.4
20170624174440 90 123 2.0 13.0 0.00 0.00 0.00 71 1019.5
20170624173440 89 115 4.0 13.0 0.00 0.00 0.00 70 1019.3
20170624172940 89 95 6.0 11.0 0.00 0.00 0.00 70 1019.5
20170624171940 89 111 4.0 10.0 0.00 0.00 0.00 73 1019.4
20170624171440 88 119 0.0 10.0 0.00 0.00 0.00 72 1019.5
20170624170940 88 118 9.0 10.0 0.00 0.00 0.00 73 1019.5
20170624164940 88 87 0.0 11.0 0.00 0.00 0.00 74 1019.3
20170624164440 88 129 5.0 11.0 0.00 0.00 0.00 74 1019.6
20170624163440 88 121 2.0 11.0 0.00 0.00 0.00 75 1019.6
20170624162940 88 104 0.0 11.0 0.00 0.00 0.00 74 1019.3
20170624162440 88 112 0.0 11.0 0.00 0.00 0.00 74 1019.4
20170624161440 88 135 0.0 11.0 0.00 0.00 0.00 76 1019.5
20170624160940 88 109 0.0 10.0 0.00 0.00 0.00 75 1019.4
20170624160440 88 86 0.0 8.0 0.00 0.00 0.00 75 1019.5
20170624155440 88 121 0.0 10.0 0.00 0.00 0.00 75 1019.6
20170624154940 88 119 0.0 10.0 0.00 0.00 0.00 75 1019.5
20170624154440 88 133 5.0 10.0 0.00 0.00 0.00 76 1019.4
20170624153940 88 108 3.0 10.0 0.00 0.00 0.00 75 1019.3
20170624153440 88 83 5.0 7.0 0.00 0.00 0.00 75 1019.3
20170624152440 88 190 0.0 5.0 0.00 0.00 0.00 69 1019.3
20170624151940 88 191 4.0 4.0 0.00 0.00 0.00 69 1019.2
20170624151440 88 236 0.0 0.0 0.00 0.00 0.00 69 1019.1
20170624150940 87 243 0.0 0.0 0.00 0.00 0.00 71 1019.1
20170624150440 87 193 0.0 0.0 0.00 0.00 0.00 72 1019.0
20170624145940 87 179 0.0 6.0 0.00 0.00 0.00 72 1019.0
20170624144440 87 159 0.0 6.0 0.00 0.00 0.00 73 1019.0
20170624142940 86 133 0.0 6.0 0.00 0.00 0.00 78 1018.9
20170624142440 85 129 0.0 6.0 0.00 0.00 0.00 76 1019.0
20170624141440 85 215 0.0 5.0 0.00 0.00 0.00 76 1018.5
20170624140940 85 165 0.0 5.0 0.00 0.00 0.00 78 1018.7
20170624140440 84 173 0.0 5.0 0.00 0.00 0.00 79 1018.6
20170624135440 84 188 0.0 7.0 0.00 0.00 0.00 80 1018.3
20170624134440 83 263 0.0 7.0 0.00 0.00 0.00 82 1018.2
20170624133939 83 166 0.0 7.0 0.00 0.00 0.00 83 1018.4
20170624133440 83 209 0.0 7.0 0.00 0.00 0.00 84 1018.4
20170624132440 82 229 0.0 7.0 0.00 0.00 0.00 87 1018.3
20170624131439 82 155 3.0 7.0 0.00 0.00 0.00 87 1018.2
20170624130940 82 175 0.0 4.0 0.00 0.00 0.00 89 1018.3
20170624130439 82 187 0.0 0.0 0.00 0.00 0.00 90 1018.5
20170624125939 82 237 0.0 5.0 0.00 0.00 0.00 90 1018.3
20170624125440 81 209 0.0 5.0 0.00 0.00 0.00 91 1018.2
20170624124940 81 171 0.0 5.0 0.00 0.00 0.00 93 1018.1
20170624123940 81 172 0.0 5.0 0.00 0.00 0.00 92 1018.3
20170624123440 81 151 0.0 4.0 0.00 0.00 0.00 92 1017.9
20170624121439 80 161 0.0 0.0 0.00 0.00 0.00 93 1017.9
20170624120939 80 164 0.0 0.0 0.00 0.00 0.00 92 1017.8
20170624120439 80 164 0.0 0.0 0.00 0.00 0.00 92 1017.9
20170624115939 80 146 0.0 0.0 0.00 0.00 0.00 95 1017.8
20170624115439 80 164 0.0 0.0 0.00 0.00 0.00 92 1017.8
20170624114939 79 162 0.0 0.0 0.00 0.00 0.00 92 1017.7
20170624113439 78 164 0.0 0.0 0.00 0.00 0.00 92 1017.6
20170624112939 78 164 0.0 0.0 0.00 0.00 0.00 91 1017.5
20170624111940 78 164 0.0 0.0 0.00 0.00 0.00 91 1017.2
20170624111439 78 164 0.0 0.0 0.00 0.00 0.00 90 1017.4
20170624110439 78 164 0.0 0.0 0.00 0.00 0.00 90 1017.2
20170624105440 78 164 0.0 0.0 0.00 0.00 0.00 90 1017.3
20170624104939 78 164 0.0 0.0 0.00 0.00 0.00 89 1017.2
20170624103939 78 164 0.0 0.0 0.00 0.00 0.00 89 1017.3